アンカレッジ/テッド・スティーブンス の空港の天気 - METARとTAF

テッド・スティーブンス・アンカレッジ国際空港 ( PANC / ANC ) - アメリカ アラスカ州アンカレッジ
飛行場実況気象(Metar)
観測時間08/10 21:53 AKDT (08/11 05:53 UTC)
風向・風速西南西 4m/s
視程10km以上
天気現象
少しの雲 雲底高度 1370m
全天の8割程度の雲 雲底高度 2590m
全天の8割程度の雲 雲底高度 3350m
全天の8割程度の雲 雲底高度 7620m
気温16.1℃
湿度64%
気圧1011.8hPa
METARPANC 110553Z 25007KT 10SM FEW045 BKN085 BKN110 BKN250 16/09 A2988 RMK AO2 SLP118 SH DSNT NE 60000 T01610094 10189 20156 53008
過去の天気等 Google飛行場航空写真 Wunderground天気予報

過去48時間のMETAR

飛行場予報(TAF)
発表時間: 8/10 21:25 AKDT (8/11 05:25 UTC)
予報対象時間: 10日22時 AKDT ~ 12日4時 AKDT
風向・風速南 3m/s
視程10km以上
天気現象周辺でしゅう雨
少しの雲 雲底高度 1370m
全天の8割程度の雲 雲底高度 2440m
11日4時 AKDT から
風向・風速不定 3m/s
視程10km以上
天気現象周辺でしゅう雨
少しの雲 雲底高度 1070m
全天の8割程度の雲 雲底高度 1520m
PANC 110525Z 1106/1212 18005KT P6SM VCSH FEW045 BKN080
FM111200 VRB05KT P6SM VCSH FEW035 BKN050